West Bristol, Pennsylvania
Current Conditions -  °F | °C
As of 5:19 AM on Wednesday 22 Oct 2014 (Local Time) from KPNE Reporting Station
Light Rain Light Rain  
Wind Chill: 57°   Ceiling: 8000
Heat Index: 57°   Visibility: 10mi
Dew Point: 50°   Wind: 15mph
Humidity: 77%   Direction: 30°NNE
Pressure: 29.87"   Gusts: NA
Location:  40.1156°N, 74.8582°W
Report Text: KPNE 220919Z 03013KT 10SM -RA SCT016 BKN080 OVC090 14/10 A2987 RMK AO2 RAB08 P0000 T01390100 $
Loading
Personal Weather Stations






























Interactive Weather Map
Tropical Storm Tracking
New forecast layout! Learn more

10-Day Weather Forecast

Advertisements
Track Severe Weather on mobile